Amber, Oklahoma
Current Conditions -  °F | °C
As of 6:55 AM on Friday 19 Dec 2014 (Local Time) from KCHK Reporting Station
Haze Haze  
Wind Chill: 32°   Ceiling: 300
Heat Index: 37°   Visibility: 0.75mi
Dew Point: 37°   Wind: 7mph
Humidity: 100%   Direction: 20°NNE
Pressure: 30.23"   Gusts: NA
Location:  35.16°N, 97.88°W
Report Text: KCHK 191255Z AUTO 02006KT 3/4SM BR OVC003 03/03 A3023 RMK AO2
Loading
Personal Weather Stations






























Interactive Weather Map New forecast layout! Learn more

10-Day Weather Forecast

Advertisements
Track Severe Weather on mobile